Time;durP1;ratioP1;P1;durP2;ratioP2;P2;SDS_P1;SDS_P2;PMS_P1;PMS_P2;Temp;Humidity;BMP_temperature;BMP_pressure;BME280_temperature;BME280_humidity;BME280_pressure;Samples;Min_cycle;Max_cycle;Signal;HPM_P1;HPM_P2
2022/03/15 00:00:49;;;;;;;8.20;5.43;;;2.70;99.90;;;;;;5034925;28;20036;-74
2022/03/15 00:03:15;;;;;;;9.63;5.32;;;2.70;99.90;;;;;;5051933;28;20085;-74
2022/03/15 00:05:41;;;;;;;7.32;4.38;;;2.70;99.90;;;;;;5067482;28;20110;-74
2022/03/15 00:08:08;;;;;;;6.20;3.90;;;2.70;99.90;;;;;;5068333;28;20048;-74
2022/03/15 00:10:33;;;;;;;6.80;4.00;;;2.80;99.90;;;;;;5067903;28;20052;-74
2022/03/15 00:12:59;;;;;;;5.25;3.72;;;2.90;99.90;;;;;;5051259;28;20110;-75
2022/03/15 00:15:26;;;;;;;7.00;3.93;;;2.80;99.90;;;;;;5067749;28;20087;-74
2022/03/15 00:17:53;;;;;;;5.65;3.60;;;2.90;99.90;;;;;;5070855;28;20283;-74
2022/03/15 00:20:23;;;;;;;4.75;3.25;;;2.90;99.90;;;;;;5067964;28;20040;-73
2022/03/15 00:22:50;;;;;;;5.38;3.03;;;2.80;99.90;;;;;;5068510;28;20133;-73
2022/03/15 00:25:18;;;;;;;5.38;2.92;;;2.80;99.90;;;;;;5068007;28;20041;-73
2022/03/15 00:27:50;;;;;;;5.20;2.83;;;2.70;99.90;;;;;;5051181;28;20044;-73
2022/03/15 00:30:17;;;;;;;5.00;2.58;;;2.80;99.90;;;;;;5068327;28;20054;-74
2022/03/15 00:32:43;;;;;;;3.97;2.33;;;2.80;99.90;;;;;;5068017;28;20055;-74
2022/03/15 00:35:14;;;;;;;4.43;2.38;;;2.70;99.90;;;;;;5068314;28;20044;-74
2022/03/15 00:37:40;;;;;;;6.03;3.38;;;2.80;99.90;;;;;;5051185;28;20456;-74
2022/03/15 00:40:06;;;;;;;;;;;2.90;99.90;;;;;;5067938;28;20404;-73
2022/03/15 00:42:32;;;;;;;4.75;2.80;;;2.90;99.90;;;;;;5067199;28;19927;-73
2022/03/15 00:45:01;;;;;;;6.78;3.20;;;2.80;99.90;;;;;;5067672;28;20041;-73
2022/03/15 00:47:28;;;;;;;5.75;2.90;;;2.90;99.90;;;;;;5071706;28;20053;-74
2022/03/15 00:49:54;;;;;;;7.22;3.40;;;2.90;99.90;;;;;;5057423;28;20451;-74
2022/03/15 00:52:19;;;;;;;8.82;3.55;;;2.90;99.90;;;;;;5074511;28;20571;-74
2022/03/15 00:54:45;;;;;;;6.93;3.73;;;2.90;99.90;;;;;;5057710;28;20206;-74
2022/03/15 00:57:11;;;;;;;7.75;3.60;;;3.00;99.90;;;;;;5074971;28;20287;-74
2022/03/15 00:59:37;;;;;;;5.50;2.83;;;3.20;99.90;;;;;;5057879;28;20496;-74
2022/03/15 01:02:03;;;;;;;8.45;4.00;;;3.20;99.90;;;;;;5074887;28;20053;-74
2022/03/15 01:04:29;;;;;;;6.65;3.38;;;3.30;99.90;;;;;;5074510;28;20045;-74
2022/03/15 01:06:55;;;;;;;6.68;2.85;;;3.30;99.90;;;;;;5074470;28;20132;-74
2022/03/15 01:09:20;;;;;;;6.15;3.00;;;3.30;99.90;;;;;;5073933;28;20056;-74
2022/03/15 01:11:46;;;;;;;5.90;2.80;;;3.40;99.90;;;;;;5074432;28;20146;-74
2022/03/15 01:14:12;;;;;;;6.00;2.70;;;3.50;99.90;;;;;;5057881;28;20054;-74
2022/03/15 01:16:38;;;;;;;7.07;3.40;;;3.50;99.90;;;;;;5057338;28;20045;-74
2022/03/15 01:19:06;;;;;;;6.20;3.15;;;3.40;99.90;;;;;;5073774;28;20294;-74
2022/03/15 01:21:34;;;;;;;8.40;4.30;;;3.40;99.90;;;;;;5074092;28;20048;-74
2022/03/15 01:24:00;;;;;;;6.30;3.70;;;3.50;99.90;;;;;;5058290;28;20127;-74
2022/03/15 01:26:26;;;;;;;8.90;4.45;;;3.50;99.90;;;;;;5073636;28;20590;-74
2022/03/15 01:28:52;;;;;;;7.90;4.17;;;3.60;99.90;;;;;;5076493;28;20471;-74
2022/03/15 01:31:18;;;;;;;9.45;4.43;;;3.50;99.90;;;;;;5055165;28;20283;-74
2022/03/15 01:33:43;;;;;;;7.90;4.43;;;3.50;99.90;;;;;;5081914;28;20043;-74
2022/03/15 01:36:09;;;;;;;10.32;5.20;;;3.50;99.90;;;;;;5058276;28;20033;-74
2022/03/15 01:38:35;;;;;;;8.13;3.42;;;3.50;99.90;;;;;;5074328;28;20043;-74
2022/03/15 01:41:01;;;;;;;7.30;3.88;;;3.50;99.90;;;;;;5073485;28;20594;-74
2022/03/15 01:43:27;;;;;;;5.65;3.00;;;3.50;99.90;;;;;;5058108;28;20053;-73
2022/03/15 01:45:53;;;;;;;8.68;4.18;;;3.50;99.90;;;;;;5074089;28;20040;-74
2022/03/15 01:48:20;;;;;;;8.07;3.75;;;3.50;99.90;;;;;;5054874;28;20060;-74
2022/03/15 01:50:46;;;;;;;8.20;3.60;;;3.50;99.90;;;;;;5074704;28;20041;-74
2022/03/15 01:53:14;;;;;;;7.55;3.67;;;3.50;99.90;;;;;;5056835;28;20048;-74
2022/03/15 01:55:40;;;;;;;7.95;3.53;;;3.50;99.90;;;;;;5074244;28;20048;-74
2022/03/15 01:58:06;;;;;;;4.82;2.88;;;3.40;99.90;;;;;;5072717;28;20487;-74
2022/03/15 02:00:32;;;;;;;4.25;2.20;;;3.50;99.90;;;;;;5037155;28;20048;-74
2022/03/15 02:02:58;;;;;;;4.22;2.20;;;3.50;99.90;;;;;;5070306;28;20501;-74
2022/03/15 02:05:23;;;;;;;5.82;3.38;;;3.40;99.90;;;;;;5053463;28;20484;-74
2022/03/15 02:07:49;;;;;;;4.10;2.40;;;3.40;99.90;;;;;;5070772;28;20048;-74
2022/03/15 02:10:15;;;;;;;6.05;3.00;;;3.40;99.90;;;;;;5036168;28;20036;-75
2022/03/15 02:12:41;;;;;;;4.88;2.92;;;3.40;99.90;;;;;;5033996;28;20056;-74
2022/03/15 02:15:07;;;;;;;4.90;2.83;;;3.50;99.90;;;;;;5051326;28;20044;-74
2022/03/15 02:17:34;;;;;;;6.07;3.30;;;3.50;99.90;;;;;;5070274;28;20309;-74
2022/03/15 02:20:04;;;;;;;;;;;3.40;99.90;;;;;;5070713;28;20040;-74
2022/03/15 02:22:30;;;;;;;6.70;3.60;;;3.50;99.90;;;;;;5070621;28;19994;-73
2022/03/15 02:24:56;;;;;;;5.38;2.80;;;3.50;99.90;;;;;;5070625;28;20048;-74
2022/03/15 02:27:23;;;;;;;6.30;3.43;;;3.50;99.90;;;;;;5053777;28;20423;-74
2022/03/15 02:29:50;;;;;;;5.65;3.05;;;3.60;99.90;;;;;;5053580;28;20360;-74
2022/03/15 02:32:16;;;;;;;8.60;4.07;;;3.60;99.90;;;;;;5052706;28;20119;-74
2022/03/15 02:34:41;;;;;;;5.13;3.63;;;3.60;99.90;;;;;;5070999;28;20132;-74
2022/03/15 02:37:08;;;;;;;5.47;3.35;;;3.70;99.90;;;;;;5054146;28;20311;-74
2022/03/15 02:39:34;;;;;;;5.28;3.28;;;3.70;99.90;;;;;;5045779;28;20048;-75
2022/03/15 02:42:00;;;;;;;5.55;3.80;;;3.70;99.90;;;;;;5052865;28;20044;-74
2022/03/15 02:44:26;;;;;;;6.50;4.47;;;3.70;99.90;;;;;;5069629;28;20123;-74
2022/03/15 02:46:52;;;;;;;7.03;4.40;;;3.70;99.90;;;;;;5069962;28;20555;-75
2022/03/15 02:49:18;;;;;;;6.90;3.70;;;3.80;99.90;;;;;;5053375;28;20053;-74
2022/03/15 02:51:44;;;;;;;7.53;3.60;;;3.90;99.90;;;;;;5070127;28;20390;-74
2022/03/15 02:54:11;;;;;;;6.47;3.97;;;4.00;99.90;;;;;;5053089;28;20037;-74
2022/03/15 02:56:46;;;;;;;6.82;3.55;;;4.00;99.90;;;;;;5052852;28;20048;-74
2022/03/15 02:59:14;;;;;;;4.50;3.20;;;4.00;99.90;;;;;;5069849;28;20388;-74
2022/03/15 03:01:40;;;;;;;7.68;3.65;;;4.10;99.90;;;;;;5061257;28;20512;-74
2022/03/15 03:04:06;;;;;;;5.05;3.55;;;4.10;99.90;;;;;;5069435;28;20068;-74
2022/03/15 03:06:32;;;;;;;6.93;3.67;;;4.20;99.90;;;;;;5068031;28;20048;-74
2022/03/15 03:08:58;;;;;;;8.02;4.15;;;4.20;99.90;;;;;;5069438;28;20133;-75
2022/03/15 03:11:24;;;;;;;5.57;3.53;;;4.30;99.90;;;;;;5066489;28;20368;-74
2022/03/15 03:13:52;;;;;;;5.50;3.42;;;4.30;99.90;;;;;;5069751;28;20119;-74
2022/03/15 03:16:18;;;;;;;5.40;3.38;;;4.40;99.90;;;;;;5065639;28;20048;-74
2022/03/15 03:18:43;;;;;;;5.90;3.30;;;4.40;99.90;;;;;;5052642;28;20147;-74
2022/03/15 03:21:09;;;;;;;6.80;3.50;;;4.40;99.90;;;;;;5069266;28;20143;-74
2022/03/15 03:23:35;;;;;;;6.82;3.40;;;4.50;99.90;;;;;;5067343;28;20096;-75
2022/03/15 03:26:02;;;;;;;;;;;4.50;99.90;;;;;;5049169;28;20076;-74
2022/03/15 03:28:36;;;;;;;4.40;2.80;;;4.50;99.90;;;;;;5051166;28;19917;-74
2022/03/15 03:31:03;;;;;;;4.85;2.70;;;4.60;99.90;;;;;;5068490;28;20075;-74
2022/03/15 03:33:30;;;;;;;4.18;2.50;;;4.60;99.90;;;;;;5068429;28;20033;-74
2022/03/15 03:35:56;;;;;;;;;;;4.60;99.90;;;;;;5069070;28;20578;-74
2022/03/15 03:38:22;;;;;;;3.38;2.45;;;4.70;99.90;;;;;;5068898;28;19931;-73
2022/03/15 03:40:47;;;;;;;3.28;2.38;;;4.70;99.90;;;;;;5068765;28;20055;-73
2022/03/15 03:43:13;;;;;;;3.40;2.05;;;4.60;99.90;;;;;;5069110;28;20047;-74
2022/03/15 03:45:39;;;;;;;3.78;2.33;;;4.70;99.90;;;;;;5051829;28;20037;-74
2022/03/15 03:48:07;;;;;;;4.32;2.47;;;4.70;99.90;;;;;;5052219;28;20079;-74
2022/03/15 03:50:34;;;;;;;4.03;2.70;;;4.60;99.90;;;;;;5068686;28;20049;-73
2022/03/15 03:53:00;;;;;;;4.45;2.75;;;4.70;99.90;;;;;;5052332;28;20048;-74
2022/03/15 03:55:26;;;;;;;6.20;3.50;;;4.60;99.90;;;;;;5069185;28;20040;-74
2022/03/15 03:57:52;;;;;;;6.07;3.85;;;4.60;99.90;;;;;;5068499;28;20127;-74
2022/03/15 04:00:18;;;;;;;6.07;3.35;;;4.70;99.90;;;;;;5067937;28;20040;-74
2022/03/15 04:02:43;;;;;;;5.15;3.03;;;4.80;99.90;;;;;;5052171;28;20521;-74
2022/03/15 04:05:10;;;;;;;6.03;3.55;;;4.80;99.90;;;;;;5069119;28;20036;-74
2022/03/15 04:07:41;;;;;;;5.82;3.10;;;4.80;99.90;;;;;;5068396;28;20056;-74
2022/03/15 04:10:08;;;;;;;6.90;3.00;;;4.90;99.90;;;;;;5051632;28;20107;-74
2022/03/15 04:12:35;;;;;;;5.25;2.58;;;4.90;99.90;;;;;;5051354;28;20041;-73
2022/03/15 04:15:04;;;;;;;5.07;2.80;;;5.00;99.90;;;;;;5051692;28;21651;-73
2022/03/15 04:17:31;;;;;;;4.20;2.58;;;4.90;99.90;;;;;;5067815;28;20040;-74
2022/03/15 04:19:56;;;;;;;2.80;2.13;;;5.00;99.90;;;;;;5051301;28;20492;-73
2022/03/15 04:22:22;;;;;;;4.20;2.50;;;5.00;99.90;;;;;;5050306;28;20143;-74
2022/03/15 04:24:48;;;;;;;6.25;2.97;;;5.00;99.90;;;;;;5069577;28;20062;-74
2022/03/15 04:27:15;;;;;;;3.88;2.75;;;5.10;99.90;;;;;;5051106;28;20494;-74
2022/03/15 04:29:42;;;;;;;4.13;2.28;;;5.10;99.90;;;;;;5067853;28;20048;-74
2022/03/15 04:32:08;;;;;;;;;;;5.10;99.90;;;;;;5051932;28;20136;-74
2022/03/15 04:34:34;;;;;;;4.40;2.50;;;5.20;99.90;;;;;;5051382;28;20050;-74
2022/03/15 04:37:00;;;;;;;4.55;2.47;;;5.30;99.90;;;;;;5067691;28;20399;-74
2022/03/15 04:39:25;;;;;;;6.03;2.95;;;5.20;99.90;;;;;;5067766;28;20048;-74
2022/03/15 04:41:51;;;;;;;4.00;2.40;;;5.30;99.90;;;;;;5051576;28;20029;-73
2022/03/15 04:44:18;;;;;;;4.45;2.40;;;5.30;99.90;;;;;;5068305;28;20048;-73
2022/03/15 04:46:44;;;;;;;4.10;2.88;;;5.30;99.90;;;;;;5069685;28;20037;-74
2022/03/15 04:49:10;;;;;;;4.82;3.10;;;5.20;99.90;;;;;;5051109;28;20056;-73
2022/03/15 04:51:35;;;;;;;4.03;2.38;;;5.30;99.90;;;;;;5052133;28;20036;-74
2022/03/15 04:54:02;;;;;;;4.72;3.05;;;5.30;99.90;;;;;;5067546;28;20033;-74
2022/03/15 04:56:28;;;;;;;5.13;3.13;;;5.40;99.90;;;;;;5044081;28;20123;-74
2022/03/15 04:58:54;;;;;;;6.35;3.03;;;5.40;99.90;;;;;;5067489;28;20467;-74
2022/03/15 05:01:20;;;;;;;4.82;3.10;;;5.40;99.90;;;;;;5067017;28;20059;-74
2022/03/15 05:03:46;;;;;;;5.85;3.20;;;5.40;99.90;;;;;;5068486;28;20079;-74
2022/03/15 05:06:12;;;;;;;6.55;3.58;;;5.40;99.90;;;;;;5066159;28;20533;-73
2022/03/15 05:08:37;;;;;;;5.40;3.40;;;5.40;99.90;;;;;;5067651;28;20048;-74
2022/03/15 05:11:06;;;;;;;5.68;2.97;;;5.40;99.90;;;;;;5050230;28;20078;-74
2022/03/15 05:13:44;;;;;;;4.85;3.25;;;5.50;99.90;;;;;;5052084;28;20051;-74
2022/03/15 05:16:17;;;;;;;6.97;4.20;;;5.40;99.90;;;;;;5061012;28;20040;-74
2022/03/15 05:18:47;;;;;;;7.00;4.40;;;5.50;99.90;;;;;;5067546;28;20395;-74
2022/03/15 05:21:16;;;;;;;7.78;4.47;;;5.50;99.90;;;;;;5050712;28;20040;-74
2022/03/15 05:23:44;;;;;;;7.57;4.45;;;5.50;99.90;;;;;;5051499;28;20123;-74
2022/03/15 05:26:10;;;;;;;7.10;4.32;;;5.50;99.90;;;;;;5071440;28;20051;-74
2022/03/15 05:28:36;;;;;;;;;;;5.50;99.90;;;;;;5031625;28;20032;-74
2022/03/15 05:31:02;;;;;;;9.73;4.43;;;5.60;99.90;;;;;;5050486;28;19974;-74
2022/03/15 05:33:30;;;;;;;10.48;5.80;;;5.60;99.90;;;;;;5068303;28;20040;-74
2022/03/15 05:35:56;;;;;;;7.32;5.10;;;5.60;99.90;;;;;;5071362;28;20151;-74
2022/03/15 05:38:22;;;;;;;10.80;5.90;;;5.60;99.90;;;;;;5054804;28;20448;-75
2022/03/15 05:40:48;;;;;;;8.32;4.80;;;5.60;99.90;;;;;;5070423;28;20038;-76
2022/03/15 05:43:14;;;;;;;14.15;6.30;;;5.60;99.90;;;;;;5053498;28;20119;-76
2022/03/15 05:45:40;;;;;;;10.18;5.85;;;5.60;99.90;;;;;;5053837;28;20076;-76
2022/03/15 05:48:06;;;;;;;9.95;5.97;;;5.70;99.90;;;;;;5069618;28;20052;-77
2022/03/15 05:50:32;;;;;;;8.60;5.35;;;5.70;99.90;;;;;;5054479;28;20043;-76
2022/03/15 05:53:02;;;;;;;8.57;5.15;;;5.60;99.90;;;;;;5070921;28;20394;-76
2022/03/15 05:55:28;;;;;;;7.85;5.05;;;5.60;99.90;;;;;;5054214;28;20492;-77
2022/03/15 05:57:54;;;;;;;7.93;4.80;;;5.70;99.90;;;;;;5054261;28;20074;-76
2022/03/15 06:00:20;;;;;;;7.03;4.53;;;5.70;99.90;;;;;;5070781;28;20044;-76
2022/03/15 06:02:46;;;;;;;10.48;5.63;;;5.70;99.90;;;;;;5054203;28;20083;-77
2022/03/15 06:05:12;;;;;;;7.63;5.30;;;5.70;99.90;;;;;;5054580;28;20080;-76
2022/03/15 06:07:49;;;;;;;7.38;5.28;;;5.70;99.90;;;;;;5070407;28;20070;-76
2022/03/15 06:10:16;;;;;;;8.82;6.00;;;5.60;99.90;;;;;;5054171;28;20041;-76
2022/03/15 06:12:43;;;;;;;10.48;6.00;;;5.60;99.90;;;;;;5070490;28;20043;-77
2022/03/15 06:15:10;;;;;;;14.00;6.95;;;5.60;99.90;;;;;;5054170;28;20048;-76
2022/03/15 06:17:50;;;;;;;13.38;6.82;;;5.60;99.90;;;;;;5070220;28;20105;-76
2022/03/15 06:20:18;;;;;;;9.75;6.35;;;5.60;99.90;;;;;;5063606;28;20040;-78
2022/03/15 06:22:45;;;;;;;9.65;6.18;;;5.70;99.90;;;;;;5052188;28;20054;-78
2022/03/15 06:25:11;;;;;;;9.65;5.80;;;5.70;99.90;;;;;;5068154;28;20044;-77
2022/03/15 06:27:36;;;;;;;10.10;6.40;;;5.70;99.90;;;;;;5069037;28;20044;-77
2022/03/15 06:30:07;;;;;;;8.27;5.87;;;5.70;99.90;;;;;;5069680;28;20043;-76
2022/03/15 06:32:33;;;;;;;9.82;6.05;;;5.70;99.90;;;;;;5070605;28;20290;-76
2022/03/15 06:35:00;;;;;;;9.05;6.00;;;5.80;99.90;;;;;;5069136;28;20047;-77
2022/03/15 06:37:26;;;;;;;14.45;8.75;;;5.80;99.90;;;;;;5053167;28;20036;-76
2022/03/15 06:39:52;;;;;;;;;;;5.70;99.90;;;;;;5070407;28;20126;-76
2022/03/15 06:42:18;;;;;;;12.30;8.10;;;5.80;99.90;;;;;;5069089;28;19932;-76
2022/03/15 06:44:44;;;;;;;14.60;8.45;;;5.80;99.90;;;;;;5069056;28;20044;-77
2022/03/15 06:47:10;;;;;;;12.30;8.15;;;5.80;99.90;;;;;;5052160;28;20033;-76
2022/03/15 06:49:36;;;;;;;;;;;5.90;99.90;;;;;;5069397;28;20055;-76
2022/03/15 06:52:02;;;;;;;10.43;7.07;;;5.90;99.90;;;;;;5051824;28;20018;-75
2022/03/15 06:54:28;;;;;;;;;;;5.90;99.90;;;;;;5049416;28;20037;-74
2022/03/15 06:56:56;;;;;;;9.80;7.10;;;5.90;99.90;;;;;;5068430;28;20378;-75
2022/03/15 06:59:21;;;;;;;10.68;6.45;;;6.00;99.90;;;;;;5066771;28;20527;-77
2022/03/15 07:01:47;;;;;;;14.70;7.55;;;6.00;99.90;;;;;;5057744;28;20149;-76
2022/03/15 07:04:13;;;;;;;12.35;8.05;;;6.00;99.90;;;;;;5065263;28;20052;-76
2022/03/15 07:06:39;;;;;;;11.52;7.15;;;6.10;99.90;;;;;;5068582;28;20045;-76
2022/03/15 07:09:04;;;;;;;12.07;6.83;;;6.10;99.90;;;;;;5060147;28;20132;-76
2022/03/15 07:11:30;;;;;;;11.80;7.25;;;6.20;99.90;;;;;;5051499;28;20306;-76
2022/03/15 07:13:55;;;;;;;9.20;6.10;;;6.20;99.90;;;;;;5069097;28;20070;-76
2022/03/15 07:16:21;;;;;;;12.65;8.05;;;6.20;99.90;;;;;;5068825;28;20127;-74
2022/03/15 07:18:47;;;;;;;14.23;8.02;;;6.30;99.90;;;;;;5068861;28;20368;-74
2022/03/15 07:21:12;;;;;;;11.57;7.38;;;6.30;99.90;;;;;;5068522;28;20376;-75
2022/03/15 07:23:38;;;;;;;10.65;7.00;;;6.30;99.90;;;;;;5033803;28;20044;-75
2022/03/15 07:26:04;;;;;;;9.32;6.45;;;6.30;99.90;;;;;;5062414;28;20093;-75
2022/03/15 07:28:31;;;;;;;9.85;5.70;;;6.40;99.90;;;;;;5066461;28;20029;-75
2022/03/15 07:30:56;;;;;;;9.70;6.30;;;6.40;99.90;;;;;;5060478;28;20032;-73
2022/03/15 07:33:22;;;;;;;13.70;8.20;;;6.40;99.90;;;;;;5064713;28;20041;-75
2022/03/15 07:35:48;;;;;;;13.35;7.80;;;6.60;99.90;;;;;;5034560;28;20127;-74
2022/03/15 07:38:17;;;;;;;13.05;8.50;;;6.60;99.90;;;;;;5067983;28;20048;-74
2022/03/15 07:40:44;;;;;;;15.60;9.77;;;6.60;99.90;;;;;;5062214;28;20060;-74
2022/03/15 07:43:10;;;;;;;12.48;9.20;;;6.60;99.90;;;;;;5065388;28;20514;-74
2022/03/15 07:45:36;;;;;;;12.88;8.32;;;6.60;99.90;;;;;;5048964;28;20083;-74
2022/03/15 07:48:02;;;;;;;11.77;7.25;;;6.70;99.90;;;;;;5063218;28;21323;-74
2022/03/15 07:50:28;;;;;;;12.05;8.60;;;6.70;99.90;;;;;;5048217;28;20040;-76
2022/03/15 07:52:53;;;;;;;13.43;8.00;;;6.80;99.90;;;;;;5069189;28;20051;-74
2022/03/15 07:55:21;;;;;;;15.85;10.13;;;6.80;99.90;;;;;;5066839;28;20045;-74
2022/03/15 07:57:47;;;;;;;16.88;10.10;;;6.80;99.90;;;;;;5046714;28;20044;-75
2022/03/15 08:00:14;;;;;;;15.82;10.68;;;6.90;99.90;;;;;;5036181;28;20059;-75
2022/03/15 08:02:40;;;;;;;14.45;9.90;;;7.00;99.90;;;;;;5047236;28;20044;-74
2022/03/15 08:05:07;;;;;;;17.13;11.90;;;7.00;99.90;;;;;;5053073;28;20051;-74
2022/03/15 08:07:35;;;;;;;17.52;11.77;;;7.00;99.90;;;;;;5060744;28;20097;-74
2022/03/15 08:10:00;;;;;;;19.17;12.45;;;7.10;99.90;;;;;;5064287;28;20044;-74
2022/03/15 08:12:26;;;;;;;18.75;12.00;;;7.10;99.90;;;;;;5061200;28;20032;-74
2022/03/15 08:14:52;;;;;;;16.63;11.85;;;7.10;99.90;;;;;;5067976;28;20037;-74
2022/03/15 08:17:18;;;;;;;24.08;14.00;;;7.10;99.90;;;;;;5064143;28;20054;-75
2022/03/15 08:19:44;;;;;;;17.98;12.07;;;7.20;99.90;;;;;;5070020;28;20090;-75
2022/03/15 08:22:09;;;;;;;13.90;9.23;;;7.20;99.90;;;;;;5062674;28;20539;-75
2022/03/15 08:24:35;;;;;;;20.10;13.15;;;7.30;99.90;;;;;;5058189;28;20051;-74
2022/03/15 08:27:01;;;;;;;17.52;12.30;;;7.20;99.90;;;;;;5058607;28;20070;-71
2022/03/15 08:35:24;;;;;;;19.83;12.18;;;7.40;99.90;;;;;;5203286;22;21167;31
2022/03/15 08:37:50;;;;;;;22.47;13.30;;;7.40;99.90;;;;;;5495030;23;19992;-75
2022/03/15 08:44:28;;;;;;;22.42;14.52;;;7.50;99.90;;;;;;5414459;23;20066;-73
2022/03/15 08:47:15;;;;;;;;;;;7.50;99.90;;;;;;5314799;23;20037;31
2022/03/15 08:49:43;;;;;;;22.42;14.20;;;7.50;99.90;;;;;;4886468;23;19927;-74
2022/03/15 08:52:10;;;;;;;18.45;12.23;;;7.50;99.90;;;;;;4894722;29;20439;-75
2022/03/15 08:54:36;;;;;;;;;;;7.60;99.90;;;;;;4881897;29;20049;-73
2022/03/15 08:57:01;;;;;;;20.85;13.48;;;7.70;99.90;;;;;;4894477;29;20358;-75
2022/03/15 08:59:27;;;;;;;21.45;13.80;;;7.70;99.90;;;;;;4914844;29;20067;-74
2022/03/15 09:01:53;;;;;;;20.90;14.13;;;7.70;99.90;;;;;;4911691;29;20097;-74
2022/03/15 09:04:19;;;;;;;20.98;14.50;;;7.80;99.90;;;;;;4910173;29;20084;-81
2022/03/15 09:06:44;;;;;;;20.77;14.48;;;7.80;99.90;;;;;;4895441;29;20401;-74
2022/03/15 09:09:10;;;;;;;19.48;13.43;;;7.80;99.90;;;;;;4881549;29;20481;-73
2022/03/15 09:11:36;;;;;;;25.00;16.42;;;7.90;99.90;;;;;;4883747;29;20048;-73
2022/03/15 09:14:02;;;;;;;25.75;16.27;;;7.90;99.90;;;;;;4897084;29;20048;-73
2022/03/15 09:16:28;;;;;;;22.10;15.93;;;7.90;99.90;;;;;;4881587;29;20047;-73
2022/03/15 09:18:54;;;;;;;24.33;15.65;;;8.00;99.90;;;;;;4901561;29;20051;-73
2022/03/15 09:21:20;;;;;;;22.02;15.35;;;8.00;99.90;;;;;;4891679;29;20063;-73
2022/03/15 09:23:46;;;;;;;24.83;16.10;;;8.10;99.90;;;;;;4882852;29;20048;-73
2022/03/15 09:26:12;;;;;;;23.45;14.73;;;8.20;99.90;;;;;;4889525;29;20052;-73
2022/03/15 09:28:38;;;;;;;21.08;15.07;;;8.30;99.90;;;;;;4894085;29;20054;-73
2022/03/15 09:31:04;;;;;;;20.08;13.85;;;8.30;99.90;;;;;;4901801;29;20048;-73
2022/03/15 09:33:30;;;;;;;;;;;8.40;99.90;;;;;;4882999;29;20149;-73
2022/03/15 09:35:57;;;;;;;22.85;15.05;;;8.50;99.90;;;;;;4888886;29;19919;-74
2022/03/15 09:38:23;;;;;;;22.63;15.82;;;8.50;99.90;;;;;;4879402;29;20162;-76
2022/03/15 09:40:53;;;;;;;23.88;16.38;;;8.50;99.90;;;;;;4915667;29;20119;-73
2022/03/15 09:43:24;;;;;;;22.50;15.65;;;8.50;99.90;;;;;;4896443;29;20051;-73
2022/03/15 09:45:53;;;;;;;20.38;15.20;;;8.50;99.90;;;;;;4896243;29;20058;-73
2022/03/15 09:48:22;;;;;;;19.63;13.55;;;8.60;99.90;;;;;;4906596;29;20056;-73
2022/03/15 09:50:50;;;;;;;20.13;14.82;;;8.70;99.90;;;;;;4911302;29;20062;-74
2022/03/15 09:53:18;;;;;;;21.50;14.35;;;8.70;99.90;;;;;;4915458;29;20044;-75
2022/03/15 09:55:45;;;;;;;21.00;14.55;;;8.80;99.90;;;;;;4901641;29;20506;-75
2022/03/15 09:58:18;;;;;;;18.58;13.30;;;8.90;99.90;;;;;;4931244;29;20052;-73
2022/03/15 10:00:44;;;;;;;19.65;13.23;;;8.90;99.90;;;;;;4933353;29;20075;-74
2022/03/15 10:03:10;;;;;;;17.33;12.95;;;9.10;99.90;;;;;;4916379;29;20052;-74
2022/03/15 10:05:36;;;;;;;17.88;12.50;;;9.20;99.90;;;;;;4934372;29;20047;-74
2022/03/15 10:08:03;;;;;;;16.95;11.65;;;9.30;99.90;;;;;;4896666;29;20060;-74
2022/03/15 10:10:29;;;;;;;20.33;14.90;;;9.50;99.90;;;;;;4902119;29;20119;-74
2022/03/15 10:12:55;;;;;;;19.23;13.98;;;9.60;99.90;;;;;;4918282;29;20043;-74
2022/03/15 10:15:26;;;;;;;18.20;13.55;;;9.70;99.90;;;;;;4916364;29;20059;-74
2022/03/15 10:18:04;;;;;;;19.05;13.55;;;9.70;99.90;;;;;;4907900;29;20115;-73
2022/03/15 10:20:38;;;;;;;19.30;13.52;;;9.80;99.90;;;;;;4909290;29;20055;-73
2022/03/15 10:23:04;;;;;;;19.70;13.27;;;9.70;99.90;;;;;;4917220;29;20090;-73
2022/03/15 10:25:31;;;;;;;18.67;13.25;;;9.70;99.90;;;;;;4901553;29;20064;-73
2022/03/15 10:28:00;;;;;;;18.13;12.98;;;9.80;99.90;;;;;;4910842;29;20044;-73
2022/03/15 10:30:30;;;;;;;17.25;11.98;;;9.80;99.90;;;;;;4932870;29;20126;-74
2022/03/15 10:32:58;;;;;;;18.63;13.43;;;9.90;99.90;;;;;;4900305;29;20067;-73
2022/03/15 10:35:30;;;;;;;17.08;13.25;;;9.90;99.90;;;;;;4916611;29;20406;-73
2022/03/15 10:37:57;;;;;;;18.92;13.23;;;10.00;99.90;;;;;;4917385;29;20103;-73
2022/03/15 10:40:35;;;;;;;17.08;12.00;;;10.00;99.90;;;;;;4900974;29;20047;-73
2022/03/15 10:43:06;;;;;;;18.05;13.07;;;10.00;99.90;;;;;;4888413;29;20043;-73
2022/03/15 10:45:34;;;;;;;18.58;12.85;;;10.00;99.90;;;;;;4914942;29;20391;-73
2022/03/15 10:48:02;;;;;;;20.08;13.45;;;10.00;99.90;;;;;;4909783;29;20098;-73
2022/03/15 10:50:30;;;;;;;17.52;13.40;;;10.00;99.90;;;;;;4917065;29;20040;-73
2022/03/15 10:52:56;;;;;;;15.45;10.98;;;10.00;99.90;;;;;;4911217;29;20043;-73
2022/03/15 10:55:25;;;;;;;13.00;10.30;;;10.00;99.90;;;;;;4916994;29;20091;-73
2022/03/15 10:58:05;;;;;;;17.20;11.90;;;10.10;99.90;;;;;;4917162;29;20134;-74
2022/03/15 11:00:42;;;;;;;15.73;11.95;;;10.10;99.90;;;;;;4908759;29;20044;-74
2022/03/15 11:03:19;;;;;;;21.10;12.75;;;10.10;99.90;;;;;;4915564;29;20099;-74
2022/03/15 11:05:47;;;;;;;21.90;12.68;;;10.00;99.90;;;;;;4900852;29;20048;-74
2022/03/15 11:08:15;;;;;;;14.63;10.93;;;10.00;99.90;;;;;;4913782;29;20084;-74
2022/03/15 11:10:46;;;;;;;14.45;11.40;;;10.00;99.90;;;;;;4898800;29;20040;-74
2022/03/15 11:13:12;;;;;;;19.50;12.93;;;9.90;99.90;;;;;;4913895;29;20364;-73
2022/03/15 11:15:47;;;;;;;17.80;12.05;;;9.90;99.90;;;;;;4909246;29;20044;-74
2022/03/15 11:18:13;;;;;;;16.27;11.52;;;9.80;99.90;;;;;;4897102;29;20099;-75
2022/03/15 11:20:41;;;;;;;14.50;10.98;;;9.80;99.90;;;;;;4913599;29;20122;-73
2022/03/15 11:23:09;;;;;;;18.75;12.25;;;9.80;99.90;;;;;;4906888;29;20035;-73
2022/03/15 11:25:41;;;;;;;19.90;12.35;;;9.80;99.90;;;;;;4908268;29;20084;-74
2022/03/15 11:28:09;;;;;;;15.32;11.73;;;9.70;99.90;;;;;;4910391;29;20044;-74
2022/03/15 11:30:36;;;;;;;14.25;10.90;;;9.70;99.90;;;;;;4915383;29;20043;-73
2022/03/15 11:33:04;;;;;;;17.00;12.60;;;9.60;99.90;;;;;;4911910;29;20043;-74
2022/03/15 11:35:35;;;;;;;14.05;10.77;;;9.60;99.90;;;;;;4883821;29;20048;-75
2022/03/15 11:38:04;;;;;;;14.75;11.57;;;9.60;99.90;;;;;;4912409;29;20102;-75
2022/03/15 11:40:31;;;;;;;15.23;10.65;;;9.60;99.90;;;;;;4913038;29;20063;-76
2022/03/15 11:43:35;;;;;;;16.85;10.95;;;9.50;99.90;;;;;;4914700;29;20487;-75
2022/03/15 11:46:03;;;;;;;18.85;11.07;;;9.40;99.90;;;;;;4911804;29;20391;-75
2022/03/15 11:48:50;;;;;;;20.30;11.65;;;9.40;99.90;;;;;;4910698;29;20063;-75
2022/03/15 11:51:38;;;;;;;18.05;10.93;;;9.40;99.90;;;;;;4915434;29;20134;-74
2022/03/15 11:54:34;;;;;;;20.52;12.73;;;9.30;99.90;;;;;;4914193;29;20040;-74
2022/03/15 11:57:05;;;;;;;16.10;11.63;;;9.30;99.90;;;;;;4905459;29;20178;-74
2022/03/15 11:59:47;;;;;;;16.45;11.82;;;9.20;99.90;;;;;;4916059;29;20058;-73
2022/03/15 12:02:13;;;;;;;19.92;12.27;;;9.20;99.90;;;;;;4916225;29;20047;-74
2022/03/15 12:04:44;;;;;;;16.20;10.80;;;9.10;99.90;;;;;;4916428;29;20135;-74
2022/03/15 12:07:12;;;;;;;15.10;10.48;;;9.10;99.90;;;;;;4915897;29;20113;-74
2022/03/15 12:09:47;;;;;;;15.38;10.10;;;9.20;99.90;;;;;;4916342;29;20051;-73
2022/03/15 12:12:14;;;;;;;10.80;7.93;;;9.20;99.90;;;;;;4916438;29;20075;-73
2022/03/15 12:14:43;;;;;;;9.57;6.78;;;9.20;99.90;;;;;;4913581;29;20043;-73
2022/03/15 12:17:13;;;;;;;10.05;7.13;;;9.30;99.90;;;;;;4911975;29;20035;-73
2022/03/15 12:19:47;;;;;;;9.80;7.40;;;9.50;99.90;;;;;;4916098;29;20040;-73
2022/03/15 12:22:24;;;;;;;9.93;6.70;;;9.50;99.90;;;;;;4915824;29;20085;-73
2022/03/15 12:25:00;;;;;;;9.85;7.53;;;9.60;99.90;;;;;;4916262;29;20052;-74
2022/03/15 12:27:27;;;;;;;7.53;5.80;;;9.60;99.90;;;;;;4915983;29;20042;-73
2022/03/15 12:29:57;;;;;;;8.13;5.85;;;9.60;99.90;;;;;;4915975;29;20085;-73
2022/03/15 12:32:23;;;;;;;7.30;5.10;;;9.70;99.90;;;;;;4899729;29;20138;-73
2022/03/15 12:34:55;;;;;;;6.80;5.07;;;9.90;99.90;;;;;;4908974;29;20116;-73
2022/03/15 12:37:30;;;;;;;6.90;5.72;;;10.00;99.90;;;;;;4915158;29;20522;-73
2022/03/15 12:39:57;;;;;;;8.60;6.28;;;10.30;99.90;;;;;;4915356;29;20043;-74
2022/03/15 12:42:24;;;;;;;13.32;7.57;;;10.50;99.90;;;;;;4915519;29;20047;-72
2022/03/15 12:45:04;;;;;;;9.90;7.63;;;10.70;99.90;;;;;;4910496;29;20629;-68
2022/03/15 12:47:33;;;;;;;10.82;7.15;;;10.90;99.90;;;;;;4912472;29;20047;-68
2022/03/15 12:50:14;;;;;;;11.18;7.07;;;11.10;99.90;;;;;;4928909;29;20051;-67
2022/03/15 12:52:47;;;;;;;9.88;6.63;;;11.20;99.90;;;;;;4912526;29;20052;-69
2022/03/15 12:55:23;;;;;;;7.88;6.03;;;11.40;99.90;;;;;;4913244;29;20047;-68
2022/03/15 12:57:54;;;;;;;9.00;5.45;;;11.50;99.90;;;;;;4910387;29;20046;-68
2022/03/15 13:00:24;;;;;;;7.13;5.13;;;11.70;99.90;;;;;;4915501;29;20162;-68
2022/03/15 13:02:55;;;;;;;8.95;6.20;;;12.00;99.90;;;;;;4915721;29;20055;-69
2022/03/15 13:05:22;;;;;;;8.32;5.00;;;11.90;99.90;;;;;;4903096;29;20353;-69